Winedale's Hourly Summary for Tuesday, May 15, 2018
Hour Temp
(f)
RH
(%)
Solar Rad.
(MJ/m2)
Rainfall
(in)
Wind
(mph)
5/15/2018 12:00 AM 73 74 0 0 3.37
5/15/2018 1:00 AM 71 84 0 0 2.58
5/15/2018 2:00 AM 70 89 0 0 2.41
5/15/2018 3:00 AM 69 93 0 0 2.02
5/15/2018 4:00 AM 69 96 0 0 3.82
5/15/2018 5:00 AM 69 96 0 0 3.34
5/15/2018 6:00 AM 69 96 0 0 2.11
5/15/2018 7:00 AM 68 97 0.01 0 0.3
5/15/2018 8:00 AM 69 97 0.24 0 0.27
5/15/2018 9:00 AM 72 87 0.71 0 1.75
5/15/2018 10:00 AM 76 71 1.5 0 3.77
5/15/2018 11:00 AM 79 61 2.49 0 4.37
5/15/2018 12:00 PM 82 52 2.69 0 3.45
5/15/2018 1:00 PM 84 45 2.87 0 3.13
5/15/2018 2:00 PM 86 43 3.56 0 3.21
5/15/2018 3:00 PM 87 41 2.98 0 3.95
5/15/2018 4:00 PM 89 39 2.98 0 4.66
5/15/2018 5:00 PM 88 38 1.5 0 4.07
5/15/2018 6:00 PM 88 37 0.81 0 2.89
5/15/2018 7:00 PM 87 37 0.8 0 2.88
5/15/2018 8:00 PM 82 43 0.1 0 0.23
5/15/2018 9:00 PM 78 53 0 0 0.01
5/15/2018 10:00 PM 78 52 0 0 0.98
5/15/2018 11:00 PM 77 52 0 0 4.06
Data Summary 77 65 23.24 0.00 2.65